Time;durP1;ratioP1;P1;durP2;ratioP2;P2;SDS_P1;SDS_P2;PMS_P1;PMS_P2;Temp;Humidity;BMP_temperature;BMP_pressure;BME280_temperature;BME280_humidity;BME280_pressure;Samples;Min_cycle;Max_cycle;Signal;HPM_P1;HPM_P2
2022/01/29 00:00:33;;;;;;;6.60;4.67;;;8.00;99.90;;;;;;5031643;28;20186;-73
2022/01/29 00:02:58;;;;;;;6.80;4.43;;;8.00;99.90;;;;;;5030413;28;20292;-70
2022/01/29 00:05:24;;;;;;;7.27;4.37;;;8.00;99.90;;;;;;5014351;28;20268;-74
2022/01/29 00:07:50;;;;;;;5.83;4.23;;;8.00;99.90;;;;;;5033771;28;20189;-71
2022/01/29 00:10:20;;;;;;;7.27;4.00;;;8.00;99.90;;;;;;5029275;28;20251;-74
2022/01/29 00:12:46;;;;;;;6.73;4.63;;;8.10;99.90;;;;;;5034303;28;20236;-73
2022/01/29 00:15:14;;;;;;;6.47;4.23;;;8.10;99.90;;;;;;5031302;28;20186;-72
2022/01/29 00:17:42;;;;;;;7.97;4.40;;;8.10;99.90;;;;;;5034362;28;20209;-71
2022/01/29 00:20:10;;;;;;;6.17;3.90;;;8.10;99.90;;;;;;5035100;28;20182;-72
2022/01/29 00:22:41;;;;;;;5.07;3.57;;;8.10;99.90;;;;;;5034593;28;20224;-74
2022/01/29 00:25:10;;;;;;;6.63;3.93;;;8.10;99.90;;;;;;5026516;28;20185;-74
2022/01/29 00:27:40;;;;;;;6.50;3.93;;;8.10;99.90;;;;;;5032481;28;20182;-74
2022/01/29 00:30:09;;;;;;;5.03;3.50;;;8.10;99.90;;;;;;5041971;28;20184;-73
2022/01/29 00:32:38;;;;;;;5.77;3.87;;;8.20;99.90;;;;;;5029563;28;20185;-73
2022/01/29 00:35:06;;;;;;;5.90;3.70;;;8.20;99.90;;;;;;5026687;28;20178;-69
2022/01/29 00:37:34;;;;;;;4.97;3.33;;;8.20;99.90;;;;;;5030609;28;20190;-73
2022/01/29 00:40:00;;;;;;;5.40;3.50;;;8.20;99.90;;;;;;5029218;28;20193;-72
2022/01/29 00:42:28;;;;;;;5.27;3.40;;;8.20;99.90;;;;;;5029127;28;20194;-72
2022/01/29 00:44:57;;;;;;;4.17;3.03;;;8.20;99.90;;;;;;5031576;28;20194;-70
2022/01/29 00:47:23;;;;;;;6.10;3.43;;;8.20;99.90;;;;;;5029816;28;20174;-74
2022/01/29 00:49:51;;;;;;;4.17;3.40;;;8.20;99.90;;;;;;5030979;28;20188;-70
2022/01/29 00:52:21;;;;;;;5.63;3.60;;;8.20;99.90;;;;;;5026321;28;20245;-72
2022/01/29 00:54:49;;;;;;;5.40;3.43;;;8.20;99.90;;;;;;5025867;28;20189;-74
2022/01/29 00:57:16;;;;;;;5.30;3.70;;;8.20;99.90;;;;;;5031121;28;20183;-72
2022/01/29 00:59:47;;;;;;;5.17;3.43;;;8.20;99.90;;;;;;5027476;28;20182;-72
2022/01/29 01:02:15;;;;;;;5.47;3.80;;;8.20;99.90;;;;;;5031829;28;20229;-71
2022/01/29 01:04:40;;;;;;;6.80;4.00;;;8.20;99.90;;;;;;5027603;28;20276;-75
2022/01/29 01:07:07;;;;;;;5.00;3.57;;;8.20;99.90;;;;;;5030346;28;20221;-75
2022/01/29 01:09:34;;;;;;;5.73;3.67;;;8.20;99.90;;;;;;5021939;28;20182;-72
2022/01/29 01:11:59;;;;;;;5.77;3.77;;;8.30;99.90;;;;;;5029218;28;20201;-74
2022/01/29 01:14:27;;;;;;;5.23;3.70;;;8.30;99.90;;;;;;5028954;28;20201;-73
2022/01/29 01:16:53;;;;;;;6.30;4.13;;;8.20;99.90;;;;;;5029289;28;20181;-73
2022/01/29 01:19:18;;;;;;;5.47;3.97;;;8.30;99.90;;;;;;5031622;28;20259;-74
2022/01/29 01:21:44;;;;;;;5.17;3.60;;;8.30;99.90;;;;;;5030314;28;20178;-73
2022/01/29 01:24:10;;;;;;;5.70;3.73;;;8.30;99.90;;;;;;5029317;28;20196;-75
2022/01/29 01:26:42;;;;;;;6.00;4.07;;;8.30;99.90;;;;;;5024332;28;20202;-73
2022/01/29 01:29:10;;;;;;;6.17;3.90;;;8.30;99.90;;;;;;5040088;28;20182;-70
2022/01/29 01:31:37;;;;;;;7.43;4.10;;;8.30;99.90;;;;;;5031293;28;20280;-71
2022/01/29 01:34:06;;;;;;;6.87;3.87;;;8.30;99.90;;;;;;5019876;28;20190;-69
2022/01/29 01:36:40;;;;;;;7.23;3.70;;;8.30;99.90;;;;;;5028803;28;20179;-72
2022/01/29 01:39:09;;;;;;;5.77;3.83;;;8.40;99.90;;;;;;5026749;28;20304;-71
2022/01/29 01:41:41;;;;;;;7.17;4.17;;;8.40;99.90;;;;;;5032743;28;20190;-66
2022/01/29 01:44:10;;;;;;;5.90;3.90;;;8.40;99.90;;;;;;5027471;28;20181;-71
2022/01/29 01:46:36;;;;;;;6.20;4.00;;;8.40;99.90;;;;;;5029825;28;20202;-72
2022/01/29 01:49:03;;;;;;;5.80;3.87;;;8.40;99.90;;;;;;5031775;28;20339;-75
2022/01/29 01:51:30;;;;;;;6.50;4.03;;;8.40;99.90;;;;;;5026146;28;20232;-74
2022/01/29 01:53:55;;;;;;;6.27;4.03;;;8.40;99.90;;;;;;5032566;28;20209;-75
2022/01/29 01:56:23;;;;;;;5.77;4.00;;;8.40;99.90;;;;;;5038769;28;20827;-66
2022/01/29 01:58:49;;;;;;;7.20;4.30;;;8.40;99.90;;;;;;5036588;28;20288;-74
2022/01/29 02:01:15;;;;;;;7.13;4.63;;;8.40;99.90;;;;;;5037419;28;20216;-74
2022/01/29 02:03:43;;;;;;;6.47;4.60;;;8.40;99.90;;;;;;5049239;28;20352;-74
2022/01/29 02:06:09;;;;;;;6.57;4.40;;;8.40;99.90;;;;;;5037000;28;20213;-74
2022/01/29 02:08:35;;;;;;;8.07;4.93;;;8.40;99.90;;;;;;5034326;28;20193;-74
2022/01/29 02:11:05;;;;;;;6.80;4.57;;;8.40;99.90;;;;;;5023623;28;20178;-76
2022/01/29 02:13:31;;;;;;;7.63;4.70;;;8.50;99.90;;;;;;5036099;28;20332;-74
2022/01/29 02:15:57;;;;;;;6.60;4.57;;;8.40;99.90;;;;;;5032443;28;20245;-74
2022/01/29 02:18:23;;;;;;;5.80;4.30;;;8.50;99.90;;;;;;5024578;28;20208;-74
2022/01/29 02:20:51;;;;;;;6.60;4.77;;;8.40;99.90;;;;;;5036130;28;20288;-74
2022/01/29 02:23:20;;;;;;;7.10;4.30;;;8.50;99.90;;;;;;5035071;28;20202;-74
2022/01/29 02:25:51;;;;;;;7.87;4.83;;;8.50;99.90;;;;;;5035236;28;20208;-73
2022/01/29 02:28:19;;;;;;;7.53;4.60;;;8.50;99.90;;;;;;5034498;28;20210;-74
2022/01/29 02:30:57;;;;;;;7.83;4.93;;;8.50;99.90;;;;;;5040123;28;20243;-72
2022/01/29 02:33:26;;;;;;;7.67;5.07;;;8.50;99.90;;;;;;5035630;28;20205;-74
2022/01/29 02:35:57;;;;;;;7.37;4.97;;;8.50;99.90;;;;;;5023235;28;20182;-72
2022/01/29 02:38:28;;;;;;;7.60;5.13;;;8.50;99.90;;;;;;5030533;28;20285;-73
2022/01/29 02:41:03;;;;;;;6.87;4.70;;;8.50;99.90;;;;;;5035200;28;20185;-74
2022/01/29 02:43:36;;;;;;;5.57;4.27;;;8.50;99.90;;;;;;5034129;28;20213;-74
2022/01/29 02:48:47;;;;;;;8.53;5.53;;;8.60;99.90;;;;;;5029290;28;20205;-74
2022/01/29 02:51:13;;;;;;;7.90;4.93;;;8.60;99.90;;;;;;5032546;28;20170;-75
2022/01/29 02:53:41;;;;;;;7.33;5.27;;;8.60;99.90;;;;;;5021737;28;20483;-71
2022/01/29 02:56:08;;;;;;;7.53;5.13;;;8.60;99.90;;;;;;5024759;28;20194;-72
2022/01/29 02:58:39;;;;;;;9.63;5.73;;;8.60;99.90;;;;;;5037121;28;20174;-72
2022/01/29 03:01:08;;;;;;;7.97;5.53;;;8.60;99.90;;;;;;5032886;28;20189;-74
2022/01/29 03:03:36;;;;;;;8.03;5.40;;;8.60;99.90;;;;;;5032555;28;20216;-71
2022/01/29 03:06:08;;;;;;;7.67;5.70;;;8.60;99.90;;;;;;5040091;28;20174;-72
2022/01/29 03:08:34;;;;;;;8.07;5.57;;;8.60;99.90;;;;;;5033348;28;20205;-74
2022/01/29 03:11:00;;;;;;;8.47;5.17;;;8.60;99.90;;;;;;5030832;28;20177;-71
2022/01/29 03:13:28;;;;;;;8.57;5.47;;;8.60;99.90;;;;;;5030587;28;20587;-72
2022/01/29 03:15:56;;;;;;;9.00;6.60;;;8.60;99.90;;;;;;5034060;28;20178;-73
2022/01/29 03:18:21;;;;;;;8.77;6.17;;;8.60;99.90;;;;;;5030612;28;20186;-72
2022/01/29 03:20:47;;;;;;;8.27;5.97;;;8.60;99.90;;;;;;5028311;28;20217;-73
2022/01/29 03:23:13;;;;;;;9.13;6.17;;;8.60;99.90;;;;;;5033850;28;20202;-71
2022/01/29 03:25:39;;;;;;;8.80;6.07;;;8.60;99.90;;;;;;5032251;28;20201;-75
2022/01/29 03:28:05;;;;;;;8.20;5.97;;;8.60;99.90;;;;;;5044101;28;20175;-72
2022/01/29 03:30:31;;;;;;;9.00;5.80;;;8.60;99.90;;;;;;5037515;28;20267;-75
2022/01/29 03:32:59;;;;;;;8.73;5.73;;;8.60;99.90;;;;;;5035728;28;20267;-74
2022/01/29 03:35:24;;;;;;;7.43;5.57;;;8.60;99.90;;;;;;5031796;28;20197;-73
2022/01/29 03:37:50;;;;;;;8.20;6.00;;;8.60;99.90;;;;;;5033114;28;20178;-72
2022/01/29 03:40:16;;;;;;;9.53;6.10;;;8.60;99.90;;;;;;5032630;28;20202;-75
2022/01/29 03:42:56;;;;;;;8.53;6.07;;;8.70;99.90;;;;;;5032264;28;20235;-73
2022/01/29 03:45:22;;;;;;;7.87;5.93;;;8.60;99.90;;;;;;5031581;28;20174;-74
2022/01/29 03:47:48;;;;;;;9.23;6.27;;;8.60;99.90;;;;;;5033110;28;20213;-74
2022/01/29 03:50:13;;;;;;;9.07;6.23;;;8.60;99.90;;;;;;5034523;28;20282;-74
2022/01/29 03:52:41;;;;;;;9.07;6.47;;;8.60;99.90;;;;;;5036042;28;20361;-72
2022/01/29 03:55:07;;;;;;;7.77;5.60;;;8.60;99.90;;;;;;5031586;28;20186;-74
2022/01/29 03:57:33;;;;;;;6.93;5.03;;;8.70;99.90;;;;;;5026196;28;20197;-70
2022/01/29 04:00:02;;;;;;;7.23;5.17;;;8.70;99.90;;;;;;5023038;28;20272;-72
2022/01/29 04:02:30;;;;;;;7.83;5.50;;;8.70;99.90;;;;;;5034141;28;20198;-70
2022/01/29 04:04:56;;;;;;;7.33;5.37;;;8.70;99.90;;;;;;5034205;28;20265;-71
2022/01/29 04:07:22;;;;;;;8.73;5.90;;;8.70;99.90;;;;;;5043087;28;20273;-69
2022/01/29 04:09:50;;;;;;;8.27;5.47;;;8.70;99.90;;;;;;5031661;28;20178;-75
2022/01/29 04:12:16;;;;;;;9.40;6.30;;;8.70;99.90;;;;;;5051666;28;20236;-75
2022/01/29 04:14:44;;;;;;;7.03;5.43;;;8.70;99.90;;;;;;5039928;28;20198;-73
2022/01/29 04:17:11;;;;;;;8.33;5.70;;;8.70;99.90;;;;;;5034614;28;20196;-73
2022/01/29 04:19:37;;;;;;;7.70;5.57;;;8.70;99.90;;;;;;5045664;28;20567;-73
2022/01/29 04:22:05;;;;;;;7.77;5.30;;;8.70;99.90;;;;;;5031772;28;20242;-71
2022/01/29 04:24:31;;;;;;;7.00;4.93;;;8.70;99.90;;;;;;5025547;28;20189;-72
2022/01/29 04:26:58;;;;;;;7.50;5.27;;;8.70;99.90;;;;;;5040509;28;20182;-70
2022/01/29 04:29:24;;;;;;;7.43;4.87;;;8.70;99.90;;;;;;5032117;28;20174;-72
2022/01/29 04:34:47;;;;;;;6.37;4.73;;;8.70;99.90;;;;;;5016669;28;20329;-74
2022/01/29 04:37:12;;;;;;;8.07;5.03;;;8.70;99.90;;;;;;5032112;28;20174;-72
2022/01/29 04:39:38;;;;;;;5.83;4.63;;;8.70;99.90;;;;;;5025892;28;20197;-74
2022/01/29 04:42:04;;;;;;;6.80;4.97;;;8.70;99.90;;;;;;5032558;28;20224;-69
2022/01/29 04:44:32;;;;;;;7.07;5.13;;;8.70;99.90;;;;;;5033759;28;20224;-74
2022/01/29 04:46:57;;;;;;;5.87;4.40;;;8.70;99.90;;;;;;5031798;28;20429;-74
2022/01/29 04:49:25;;;;;;;6.77;4.20;;;8.70;99.90;;;;;;5032351;28;20208;-72
2022/01/29 04:51:53;;;;;;;5.77;4.13;;;8.70;99.90;;;;;;5032795;28;20197;-74
2022/01/29 04:54:21;;;;;;;6.20;4.20;;;8.70;99.90;;;;;;5030149;28;20188;-73
2022/01/29 04:56:51;;;;;;;5.23;4.00;;;8.80;99.90;;;;;;5035031;28;20217;-71
2022/01/29 04:59:19;;;;;;;5.33;3.73;;;8.80;99.90;;;;;;5027400;28;20190;-72
2022/01/29 05:01:47;;;;;;;4.70;3.67;;;8.80;99.90;;;;;;5027072;28;20197;-72
2022/01/29 05:04:13;;;;;;;5.03;3.73;;;8.80;99.90;;;;;;5030676;28;20192;-72
2022/01/29 05:06:38;;;;;;;6.27;3.77;;;8.80;99.90;;;;;;5031743;28;20170;-73
2022/01/29 05:09:07;;;;;;;4.73;3.37;;;8.80;99.90;;;;;;5027508;28;20270;-72
2022/01/29 05:11:33;;;;;;;4.57;3.23;;;8.80;99.90;;;;;;5032215;28;20189;-74
2022/01/29 05:13:59;;;;;;;4.50;3.20;;;8.80;99.90;;;;;;5036414;28;20186;-72
2022/01/29 05:16:37;;;;;;;5.53;3.70;;;8.80;99.90;;;;;;5029881;28;20216;-71
2022/01/29 05:27:20;;;;;;;3.80;2.80;;;8.80;99.90;;;;;;5026279;28;20221;-67
2022/01/29 05:29:45;;;;;;;3.60;2.97;;;8.80;99.90;;;;;;5030252;28;20193;-69
2022/01/29 05:32:15;;;;;;;3.30;2.70;;;8.90;99.90;;;;;;5052072;28;20181;-72
2022/01/29 05:34:40;;;;;;;3.57;2.40;;;8.80;99.90;;;;;;5032129;28;20477;-71
2022/01/29 05:37:09;;;;;;;2.60;2.30;;;8.80;99.90;;;;;;5025803;28;20206;-71
2022/01/29 05:39:37;;;;;;;3.47;2.60;;;8.90;99.90;;;;;;5024953;28;20299;-71
2022/01/29 05:42:05;;;;;;;2.30;2.07;;;8.90;99.90;;;;;;5022455;28;20579;-71
2022/01/29 05:44:33;;;;;;;2.77;2.10;;;8.90;99.90;;;;;;5021063;28;20323;-70
2022/01/29 05:47:03;;;;;;;2.63;2.10;;;9.00;99.90;;;;;;5031560;28;20173;-72
2022/01/29 05:49:29;;;;;;;2.47;2.00;;;9.00;99.90;;;;;;5044693;28;20239;-66
2022/01/29 05:51:54;;;;;;;2.70;2.10;;;9.00;99.90;;;;;;5028535;28;20256;-71
2022/01/29 05:54:20;;;;;;;2.27;1.77;;;8.90;99.90;;;;;;5031877;28;20199;-73
2022/01/29 05:56:48;;;;;;;2.60;2.07;;;9.00;99.90;;;;;;5030147;28;20206;-70
2022/01/29 05:59:16;;;;;;;2.20;1.83;;;9.00;99.90;;;;;;5032324;28;20181;-70
2022/01/29 06:01:42;;;;;;;2.10;1.73;;;9.00;99.90;;;;;;5026580;28;20170;-72
2022/01/29 06:04:09;;;;;;;2.17;1.70;;;9.00;99.90;;;;;;5035150;28;20300;-71
2022/01/29 06:06:35;;;;;;;2.33;1.80;;;9.00;99.90;;;;;;5031886;28;20183;-71
2022/01/29 06:09:05;;;;;;;2.50;1.60;;;9.00;99.90;;;;;;5045298;28;20178;-73
2022/01/29 06:11:34;;;;;;;1.87;1.40;;;9.00;99.90;;;;;;5034135;28;20192;-71
2022/01/29 06:14:02;;;;;;;2.43;1.50;;;9.00;99.90;;;;;;5029338;28;20260;-72
2022/01/29 06:16:29;;;;;;;1.80;1.27;;;9.00;99.90;;;;;;5033117;28;20182;-76
2022/01/29 06:18:57;;;;;;;1.77;1.30;;;9.00;99.90;;;;;;5029736;28;20186;-72
2022/01/29 06:21:27;;;;;;;1.27;1.00;;;8.90;99.90;;;;;;5034712;28;20210;-66
2022/01/29 06:23:58;;;;;;;1.70;1.20;;;8.90;99.90;;;;;;5031459;28;20233;-71
2022/01/29 06:26:25;;;;;;;1.27;1.10;;;8.80;99.90;;;;;;5017255;28;20186;-72
2022/01/29 06:28:54;;;;;;;1.00;0.87;;;8.80;99.90;;;;;;5032412;28;20183;-72
2022/01/29 06:31:21;;;;;;;1.40;1.20;;;8.80;99.90;;;;;;5027042;28;20170;-73
2022/01/29 06:33:49;;;;;;;1.23;0.90;;;8.80;99.90;;;;;;5032382;28;20185;-68
2022/01/29 06:36:18;;;;;;;2.63;0.97;;;8.80;99.90;;;;;;5034104;28;20193;-71
2022/01/29 06:38:45;;;;;;;1.00;0.80;;;8.80;99.90;;;;;;5032146;28;20212;-70
2022/01/29 06:41:11;;;;;;;1.53;0.90;;;8.80;99.90;;;;;;5031892;28;20186;-73
2022/01/29 06:43:37;;;;;;;1.10;0.70;;;8.80;99.90;;;;;;5032602;28;20843;-75
2022/01/29 06:46:02;;;;;;;1.03;0.70;;;8.80;99.90;;;;;;5033728;28;20249;-70
2022/01/29 06:48:30;;;;;;;0.77;0.50;;;8.70;99.90;;;;;;5034786;28;20213;-74
2022/01/29 06:50:58;;;;;;;1.03;0.80;;;8.70;99.90;;;;;;5034878;28;20178;-73
2022/01/29 06:53:25;;;;;;;1.00;0.60;;;8.70;99.90;;;;;;5035112;28;20216;-73
2022/01/29 06:55:53;;;;;;;0.73;0.60;;;8.70;99.90;;;;;;5030761;28;20290;-71
2022/01/29 06:58:21;;;;;;;0.77;0.50;;;8.80;99.90;;;;;;5050257;28;20206;-72
2022/01/29 07:00:49;;;;;;;0.77;0.50;;;8.80;99.90;;;;;;5047974;28;20197;-73
2022/01/29 07:03:17;;;;;;;2.03;1.47;;;8.80;99.90;;;;;;5029854;28;20635;-73
2022/01/29 07:05:45;;;;;;;1.50;1.03;;;8.80;99.90;;;;;;5035600;28;20189;-73
2022/01/29 07:08:13;;;;;;;1.30;0.90;;;8.90;99.90;;;;;;5030653;28;20193;-71
2022/01/29 07:10:38;;;;;;;0.60;0.50;;;8.90;99.90;;;;;;5034603;28;20433;-73
2022/01/29 07:13:06;;;;;;;0.93;0.70;;;8.90;99.90;;;;;;5040471;28;20213;-71
2022/01/29 07:15:31;;;;;;;0.63;0.60;;;9.00;99.90;;;;;;5040705;28;20278;-75
2022/01/29 07:17:59;;;;;;;1.10;0.60;;;9.00;99.90;;;;;;5036385;28;20417;-76
2022/01/29 07:20:32;;;;;;;0.67;0.50;;;9.00;99.90;;;;;;5035570;28;20210;-70
2022/01/29 07:22:58;;;;;;;0.30;0.30;;;9.00;99.90;;;;;;5035216;28;20260;-75
2022/01/29 07:25:25;;;;;;;1.03;0.80;;;9.10;99.90;;;;;;5027165;28;20194;-75
2022/01/29 07:27:53;;;;;;;0.60;0.53;;;9.10;99.90;;;;;;5030480;28;20265;-76
2022/01/29 07:30:25;;;;;;;0.60;0.50;;;9.20;99.90;;;;;;5034748;28;20343;-75
2022/01/29 07:32:52;;;;;;;0.50;0.40;;;9.20;99.90;;;;;;5033572;28;20173;-75
2022/01/29 07:35:18;;;;;;;0.50;0.50;;;9.20;99.90;;;;;;5032725;28;20170;-75
2022/01/29 07:37:43;;;;;;;0.60;0.50;;;9.30;99.90;;;;;;5030844;28;20189;-76
2022/01/29 07:40:11;;;;;;;0.67;0.47;;;9.30;99.90;;;;;;5026027;28;20210;-75
2022/01/29 07:42:38;;;;;;;0.70;0.40;;;9.30;99.90;;;;;;5035718;28;20241;-76
2022/01/29 07:45:08;;;;;;;0.47;0.40;;;9.30;99.90;;;;;;5030372;28;20296;-75
2022/01/29 07:47:36;;;;;;;0.37;0.30;;;9.40;99.90;;;;;;5033148;28;20202;-72
2022/01/29 07:50:02;;;;;;;0.60;0.50;;;9.40;99.90;;;;;;5034812;28;20204;-75
2022/01/29 07:52:31;;;;;;;0.57;0.47;;;9.40;99.90;;;;;;5034063;28;20195;-76
2022/01/29 07:54:57;;;;;;;0.50;0.50;;;9.40;99.90;;;;;;5031627;28;20312;-74
2022/01/29 07:57:24;;;;;;;0.38;0.30;;;9.50;99.90;;;;;;5023187;28;20232;-76
2022/01/29 07:59:50;;;;;;;0.47;0.33;;;9.50;99.90;;;;;;5030604;28;20198;-75
2022/01/29 08:02:18;;;;;;;0.60;0.50;;;9.50;99.90;;;;;;5033807;28;20251;-76
2022/01/29 08:04:44;;;;;;;1.17;0.50;;;9.50;99.90;;;;;;5032484;28;20185;-76
2022/01/29 08:07:11;;;;;;;0.65;0.50;;;9.60;99.90;;;;;;5049242;28;20217;-75
2022/01/29 08:09:37;;;;;;;0.50;0.40;;;9.60;99.90;;;;;;5032153;28;20185;-75
2022/01/29 08:12:03;;;;;;;0.50;0.50;;;9.60;99.90;;;;;;5031517;28;20207;-75
2022/01/29 08:14:28;;;;;;;0.60;0.50;;;9.60;99.90;;;;;;5031776;28;20238;-70
2022/01/29 08:16:56;;;;;;;0.50;0.50;;;9.70;99.90;;;;;;5025233;28;20177;-72
2022/01/29 08:19:22;;;;;;;0.63;0.50;;;9.70;99.90;;;;;;5027469;28;20194;-75
2022/01/29 08:21:50;;;;;;;0.80;0.50;;;9.70;99.90;;;;;;5031847;28;20174;-74
2022/01/29 08:24:17;;;;;;;0.53;0.50;;;9.70;99.90;;;;;;5030475;28;20206;-71
2022/01/29 08:26:45;;;;;;;0.45;0.45;;;9.80;99.90;;;;;;5033772;28;20296;-71
2022/01/29 08:29:13;;;;;;;0.40;0.40;;;9.80;99.90;;;;;;5029429;28;20189;-71
2022/01/29 08:31:39;;;;;;;0.80;0.60;;;9.80;99.90;;;;;;5036888;28;20198;-74
2022/01/29 08:34:06;;;;;;;0.70;0.50;;;9.90;99.90;;;;;;5029188;28;20216;-70
2022/01/29 08:36:33;;;;;;;0.65;0.50;;;9.90;99.90;;;;;;5057695;28;20182;-74
2022/01/29 08:38:58;;;;;;;0.73;0.60;;;10.00;99.90;;;;;;5027495;28;20206;-72
2022/01/29 08:41:29;;;;;;;0.80;0.70;;;10.00;99.90;;;;;;5031321;28;20178;-74
2022/01/29 08:43:54;;;;;;;1.20;0.98;;;10.00;99.90;;;;;;5030639;28;20194;-73
2022/01/29 08:46:20;;;;;;;0.63;0.60;;;10.00;99.90;;;;;;5021066;28;20185;-69
2022/01/29 08:48:46;;;;;;;0.80;0.65;;;10.10;99.90;;;;;;5032564;28;20178;-72
2022/01/29 08:51:14;;;;;;;0.73;0.60;;;10.10;99.90;;;;;;5033958;28;20190;-74
2022/01/29 08:53:41;;;;;;;0.70;0.50;;;10.10;99.90;;;;;;5027470;28;20188;-69
2022/01/29 08:56:06;;;;;;;0.82;0.60;;;10.20;99.90;;;;;;5033035;28;20185;-71
2022/01/29 08:58:34;;;;;;;0.70;0.60;;;10.20;99.90;;;;;;5030601;28;20283;-70
2022/01/29 09:01:00;;;;;;;0.70;0.70;;;10.20;99.90;;;;;;5023550;28;20262;-69
2022/01/29 09:03:29;;;;;;;1.50;1.13;;;10.20;99.90;;;;;;5030865;28;20300;-72
2022/01/29 09:05:57;;;;;;;1.10;0.98;;;10.30;99.90;;;;;;5028826;28;20252;-70
2022/01/29 09:08:23;;;;;;;1.00;0.80;;;10.30;99.90;;;;;;5031687;28;20241;-73
2022/01/29 09:10:52;;;;;;;1.60;1.00;;;10.30;99.90;;;;;;5026179;28;20202;-69
2022/01/29 09:13:17;;;;;;;0.80;0.70;;;10.40;99.90;;;;;;5033636;28;20189;-75
2022/01/29 09:16:04;;;;;;;1.17;0.80;;;10.40;99.90;;;;;;5022262;28;20252;-69
2022/01/29 09:18:29;;;;;;;0.80;0.70;;;10.40;99.90;;;;;;5029951;28;20202;-71
2022/01/29 09:20:57;;;;;;;0.70;0.65;;;10.40;99.90;;;;;;5026928;28;20181;-71
2022/01/29 09:23:23;;;;;;;1.90;0.80;;;10.40;99.90;;;;;;5026581;28;20292;-75
2022/01/29 09:25:48;;;;;;;1.33;0.75;;;10.50;99.90;;;;;;5024729;28;20290;-73
2022/01/29 09:28:16;;;;;;;0.82;0.80;;;10.50;99.90;;;;;;5024724;28;20447;-76
2022/01/29 09:30:45;;;;;;;1.15;0.70;;;10.60;99.90;;;;;;5027497;28;20195;-76
2022/01/29 09:33:12;;;;;;;1.63;0.60;;;10.60;99.90;;;;;;5028586;28;20174;-75
2022/01/29 09:35:42;;;;;;;1.83;0.63;;;10.60;99.90;;;;;;5028831;28;20205;-76
2022/01/29 09:38:09;;;;;;;0.98;0.73;;;10.60;99.90;;;;;;5031059;28;20320;-74
2022/01/29 09:40:36;;;;;;;0.70;0.70;;;10.70;99.90;;;;;;5026877;28;20178;-74
2022/01/29 09:43:05;;;;;;;0.70;0.70;;;10.70;99.90;;;;;;5026966;28;20209;-75
2022/01/29 09:45:35;;;;;;;0.70;0.60;;;10.80;99.90;;;;;;5024879;28;20181;-74
2022/01/29 09:48:06;;;;;;;0.70;0.70;;;10.80;99.90;;;;;;5027691;28;20213;-73
2022/01/29 09:50:38;;;;;;;0.90;0.80;;;10.80;99.90;;;;;;5042787;28;20184;-71
2022/01/29 09:53:10;;;;;;;1.58;0.65;;;10.80;99.90;;;;;;5033859;28;20331;-74
2022/01/29 09:55:35;;;;;;;1.25;0.88;;;10.90;99.90;;;;;;5029362;28;20206;-74
2022/01/29 09:58:06;;;;;;;1.13;0.80;;;10.90;99.90;;;;;;5029939;28;20242;-76
2022/01/29 10:00:35;;;;;;;0.95;0.80;;;11.00;99.90;;;;;;5025426;28;20209;-73
2022/01/29 10:03:10;;;;;;;1.50;0.88;;;11.00;99.90;;;;;;5022566;28;20204;-72
2022/01/29 10:05:51;;;;;;;1.35;0.80;;;11.10;99.90;;;;;;5031182;28;20185;-71
2022/01/29 10:08:18;;;;;;;0.70;0.60;;;11.10;99.90;;;;;;5031526;28;20256;-74
2022/01/29 10:10:45;;;;;;;1.13;0.73;;;11.10;99.90;;;;;;5029069;28;20283;-75
2022/01/29 10:13:32;;;;;;;1.45;0.77;;;11.20;99.90;;;;;;5030153;28;20194;-71
2022/01/29 10:16:19;;;;;;;2.15;0.95;;;11.20;99.90;;;;;;5046842;28;20189;-71
2022/01/29 10:19:07;;;;;;;0.93;0.80;;;11.30;99.90;;;;;;5035781;28;20210;-73
2022/01/29 10:21:37;;;;;;;0.70;0.70;;;11.30;99.90;;;;;;5036837;28;20208;-74
2022/01/29 10:24:15;;;;;;;1.17;0.90;;;11.30;99.90;;;;;;5029485;28;20205;-71
2022/01/29 10:26:43;;;;;;;1.55;0.90;;;11.40;99.90;;;;;;5024680;28;20217;-74
2022/01/29 10:29:24;;;;;;;2.45;0.80;;;11.40;99.90;;;;;;5032593;28;20208;-72
2022/01/29 10:31:51;;;;;;;0.90;0.80;;;11.40;99.90;;;;;;5022971;28;20202;-74
2022/01/29 10:34:28;;;;;;;2.08;0.80;;;11.50;99.90;;;;;;5030541;28;20216;-74
2022/01/29 10:37:17;;;;;;;1.70;0.90;;;11.50;99.90;;;;;;5029965;28;20211;-74
2022/01/29 10:40:34;;;;;;;0.90;0.70;;;11.50;99.90;;;;;;5030211;28;20174;-72
2022/01/29 10:43:04;;;;;;;2.35;0.93;;;11.60;99.90;;;;;;5041106;28;20210;-73
2022/01/29 10:45:34;;;;;;;1.15;0.80;;;11.60;99.90;;;;;;5031676;28;20336;-76
2022/01/29 10:48:06;;;;;;;0.95;0.70;;;11.70;99.90;;;;;;5033069;28;20214;-74
2022/01/29 10:50:33;;;;;;;1.00;0.80;;;11.70;99.90;;;;;;5048662;28;20182;-72
2022/01/29 10:53:29;;;;;;;1.15;0.70;;;11.70;99.90;;;;;;5032551;28;20174;-74
2022/01/29 10:55:59;;;;;;;2.70;0.80;;;11.80;99.90;;;;;;5027424;28;20178;-74
2022/01/29 10:58:26;;;;;;;1.25;0.80;;;11.80;99.90;;;;;;5032732;28;20205;-75
2022/01/29 11:01:12;;;;;;;1.13;0.57;;;11.80;99.90;;;;;;5035246;28;20185;-73
2022/01/29 11:03:37;;;;;;;0.77;0.70;;;11.90;99.90;;;;;;5027707;28;20731;-72
2022/01/29 11:06:03;;;;;;;0.57;0.57;;;12.00;99.90;;;;;;5033234;28;20192;-73
2022/01/29 11:08:29;;;;;;;1.40;0.63;;;12.00;99.90;;;;;;5035368;28;20267;-73
2022/01/29 11:10:58;;;;;;;1.60;0.65;;;12.10;99.90;;;;;;5034182;28;20216;-74
2022/01/29 11:13:27;;;;;;;0.60;0.57;;;12.10;99.90;;;;;;5030369;28;20182;-74
2022/01/29 11:15:53;;;;;;;0.90;0.60;;;12.10;99.90;;;;;;5029360;28;20199;-72
2022/01/29 11:18:23;;;;;;;0.40;0.40;;;12.20;99.90;;;;;;5031397;28;20206;-73
2022/01/29 11:20:49;;;;;;;0.70;0.50;;;12.20;99.90;;;;;;5030775;28;20208;-73
2022/01/29 11:23:17;;;;;;;1.00;0.60;;;12.30;99.90;;;;;;5031495;28;20225;-74
2022/01/29 11:25:46;;;;;;;1.02;0.68;;;12.40;99.90;;;;;;5026305;28;20190;-74
2022/01/29 11:28:16;;;;;;;1.08;0.60;;;12.50;99.90;;;;;;5027269;28;20198;-72
2022/01/29 11:30:45;;;;;;;1.70;0.50;;;12.50;99.90;;;;;;5029513;28;20212;-74
2022/01/29 11:33:11;;;;;;;0.40;0.40;;;12.50;99.90;;;;;;5038353;28;20252;-74
2022/01/29 11:35:56;;;;;;;0.28;0.28;;;12.50;99.90;;;;;;5032630;28;20174;-77
2022/01/29 11:38:32;;;;;;;0.40;0.28;;;12.50;99.90;;;;;;5027282;28;20211;-74
2022/01/29 11:40:59;;;;;;;0.32;0.32;;;12.50;99.90;;;;;;5031837;28;20181;-70
2022/01/29 11:43:29;;;;;;;0.30;0.30;;;12.50;99.90;;;;;;5032307;28;20206;-75
2022/01/29 11:46:15;;;;;;;0.57;0.30;;;12.50;99.90;;;;;;5031326;28;20178;-77
2022/01/29 11:48:56;;;;;;;0.68;0.30;;;12.50;99.90;;;;;;5033025;28;20189;-76
2022/01/29 11:51:43;;;;;;;0.60;0.40;;;12.50;99.90;;;;;;5026555;28;20248;-74
2022/01/29 11:54:16;;;;;;;0.35;0.30;;;12.50;99.90;;;;;;5030478;28;20304;-76
2022/01/29 11:56:42;;;;;;;0.28;0.20;;;12.50;99.90;;;;;;5027070;28;20210;-75
2022/01/29 11:59:19;;;;;;;0.20;0.20;;;12.50;99.90;;;;;;5032323;28;20204;-73
2022/01/29 12:01:46;;;;;;;0.43;0.32;;;12.50;99.90;;;;;;5033978;28;20181;-72
2022/01/29 12:04:12;;;;;;;0.77;0.35;;;12.50;99.90;;;;;;5036253;28;20209;-73
2022/01/29 12:07:28;;;;;;;0.38;0.30;;;12.50;99.90;;;;;;5032787;28;20166;-72
2022/01/29 12:10:02;;;;;;;0.40;0.30;;;12.50;99.90;;;;;;5025452;28;20267;-70
2022/01/29 12:12:34;;;;;;;0.35;0.30;;;12.50;99.90;;;;;;5025246;28;20255;-70
2022/01/29 12:15:11;;;;;;;0.75;0.30;;;12.50;99.90;;;;;;5027882;28;20261;-72
2022/01/29 12:17:48;;;;;;;0.63;0.40;;;12.50;99.90;;;;;;5022732;28;20177;-73
2022/01/29 12:20:19;;;;;;;0.30;0.30;;;12.50;99.90;;;;;;5037713;28;20182;-68
2022/01/29 12:22:49;;;;;;;0.60;0.43;;;12.50;99.90;;;;;;5036104;28;20205;-73
2022/01/29 12:25:17;;;;;;;0.45;0.30;;;12.50;99.90;;;;;;5028934;28;20281;-74
2022/01/29 12:27:49;;;;;;;0.30;0.30;;;12.50;99.90;;;;;;5028235;28;20198;-74
2022/01/29 12:30:23;;;;;;;0.70;0.40;;;12.60;99.90;;;;;;5029624;28;20205;-71
2022/01/29 12:33:03;;;;;;;0.50;0.30;;;12.60;99.90;;;;;;5042954;28;20181;-73
2022/01/29 12:35:37;;;;;;;0.20;0.20;;;12.60;99.90;;;;;;5024375;28;20185;-73
2022/01/29 12:38:07;;;;;;;0.10;0.10;;;12.70;99.90;;;;;;5032302;28;20269;-74
2022/01/29 12:40:40;;;;;;;0.80;0.30;;;12.70;99.90;;;;;;5029105;28;20209;-74
2022/01/29 12:43:23;;;;;;;0.40;0.22;;;12.70;99.90;;;;;;5032443;28;20228;-74
2022/01/29 12:45:52;;;;;;;0.40;0.30;;;12.80;99.90;;;;;;5032675;28;20252;-72
2022/01/29 12:48:20;;;;;;;0.30;0.30;;;12.80;99.90;;;;;;5030124;28;20177;-74
2022/01/29 12:50:48;;;;;;;0.30;0.25;;;12.80;99.90;;;;;;5029663;28;20222;-75
2022/01/29 12:53:20;;;;;;;0.52;0.32;;;12.80;99.90;;;;;;5028595;28;20217;-76
2022/01/29 12:55:59;;;;;;;0.68;0.40;;;12.80;99.90;;;;;;5026716;28;20185;-76
2022/01/29 12:58:35;;;;;;;0.43;0.40;;;12.90;99.90;;;;;;5032212;28;20276;-74
2022/01/29 13:01:08;;;;;;;2.05;0.32;;;12.90;99.90;;;;;;5029809;28;20203;-74
2022/01/29 13:03:34;;;;;;;0.77;0.30;;;12.90;99.90;;;;;;5029519;28;20214;-73
2022/01/29 13:06:12;;;;;;;0.30;0.30;;;12.90;99.90;;;;;;5026342;28;20198;-73
2022/01/29 13:08:41;;;;;;;0.25;0.25;;;13.00;99.90;;;;;;5033029;28;20322;-73
2022/01/29 13:11:28;;;;;;;0.28;0.25;;;13.00;99.90;;;;;;5031520;28;20178;-73
2022/01/29 13:13:54;;;;;;;0.35;0.30;;;13.00;99.90;;;;;;5031725;28;20224;-73
2022/01/29 13:16:20;;;;;;;0.70;0.30;;;13.00;99.90;;;;;;5029556;28;20175;-73